createdAt,value
2018-09-17T00:02:42.707Z,2.50
2018-09-17T00:07:52.746Z,2.50
2018-09-17T00:13:02.668Z,2.27
2018-09-17T00:18:12.679Z,2.70
2018-09-17T00:23:22.676Z,2.83
2018-09-17T00:28:32.753Z,2.47
2018-09-17T00:33:42.667Z,2.40
2018-09-17T00:38:52.644Z,2.20
2018-09-17T00:44:02.568Z,2.67
2018-09-17T00:49:12.620Z,2.33
2018-09-17T00:54:22.704Z,2.70
2018-09-17T00:59:32.813Z,2.33
2018-09-17T01:04:42.836Z,2.10
2018-09-17T01:09:52.815Z,2.17
2018-09-17T01:15:02.848Z,3.33
2018-09-17T01:20:13.183Z,2.60
2018-09-17T01:25:23.267Z,2.20
2018-09-17T01:30:33.350Z,3.40
2018-09-17T01:35:43.320Z,2.90
2018-09-17T01:40:53.367Z,3.37
2018-09-17T01:46:03.424Z,3.33
2018-09-17T01:51:13.396Z,3.27
2018-09-17T01:56:23.489Z,3.30
2018-09-17T02:01:33.543Z,3.40
2018-09-17T02:06:43.568Z,3.97
2018-09-17T02:11:53.428Z,3.67
2018-09-17T02:17:03.304Z,4.20
2018-09-17T02:22:13.300Z,3.40
2018-09-17T02:27:23.320Z,3.10
2018-09-17T02:32:33.356Z,3.63
2018-09-17T02:37:43.208Z,3.50
2018-09-17T02:42:53.225Z,3.77
2018-09-17T02:48:03.216Z,4.03
2018-09-17T02:53:13.280Z,4.23
2018-09-17T02:58:23.300Z,3.80
2018-09-17T03:03:33.275Z,4.43
2018-09-17T03:08:43.464Z,4.37
2018-09-17T03:13:53.558Z,4.00
2018-09-17T03:19:03.598Z,4.70
2018-09-17T03:24:13.636Z,4.50
2018-09-17T03:29:23.676Z,3.57
2018-09-17T03:34:33.672Z,3.60
2018-09-17T03:39:43.756Z,3.20
2018-09-17T03:44:53.859Z,3.07
2018-09-17T03:50:03.766Z,4.80
2018-09-17T03:55:14.120Z,5.17
2018-09-17T04:00:24.128Z,4.40
2018-09-17T04:05:35.344Z,5.07
2018-09-17T04:10:45.298Z,5.70
2018-09-17T04:15:55.356Z,5.37
2018-09-17T04:21:05.380Z,4.83
2018-09-17T04:26:15.435Z,5.50
2018-09-17T04:31:25.410Z,5.70
2018-09-17T04:36:35.320Z,5.03
2018-09-17T04:41:45.392Z,5.17
2018-09-17T04:46:55.427Z,5.87
2018-09-17T04:52:05.409Z,5.30
2018-09-17T04:57:15.524Z,5.27
2018-09-17T05:02:25.384Z,4.87
2018-09-17T05:07:35.384Z,5.57
2018-09-17T05:12:45.445Z,5.27
2018-09-17T05:17:55.456Z,3.67
2018-09-17T05:23:05.485Z,5.93
2018-09-17T05:28:15.543Z,3.87
2018-09-17T05:33:25.619Z,3.53
2018-09-17T05:38:35.539Z,4.13
2018-09-17T05:43:45.664Z,4.00
2018-09-17T05:48:55.552Z,3.67
2018-09-17T05:54:05.580Z,6.10
2018-09-17T05:59:15.961Z,3.60
2018-09-17T06:04:25.915Z,5.77
2018-09-17T06:09:36.043Z,6.17
2018-09-17T06:14:45.867Z,5.60
2018-09-17T06:19:55.847Z,6.03
2018-09-17T06:25:05.826Z,6.13
2018-09-17T06:30:16.699Z,6.33
2018-09-17T06:35:26.888Z,5.50
2018-09-17T06:40:36.907Z,6.03
2018-09-17T06:45:46.939Z,5.47
2018-09-17T06:50:56.816Z,5.23
2018-09-17T06:56:06.895Z,5.57
2018-09-17T07:01:16.861Z,5.77
2018-09-17T07:06:26.919Z,5.40
2018-09-17T07:11:36.941Z,5.13
2018-09-17T07:16:46.824Z,4.90
2018-09-17T07:21:56.840Z,5.67
2018-09-17T07:27:06.861Z,5.10
2018-09-17T07:32:16.949Z,4.33
2018-09-17T07:37:26.842Z,5.07
2018-09-17T07:42:36.890Z,5.80
2018-09-17T07:47:46.892Z,5.60
2018-09-17T07:52:56.778Z,4.97
2018-09-17T07:58:06.805Z,5.57
2018-09-17T08:03:16.812Z,5.20
2018-09-17T08:08:26.703Z,5.03
2018-09-17T08:13:36.728Z,5.10
2018-09-17T08:18:46.669Z,4.70
2018-09-17T08:23:56.695Z,5.00
2018-09-17T08:29:06.744Z,4.83
2018-09-17T08:34:16.891Z,5.13
2018-09-17T08:39:26.928Z,3.43
2018-09-17T08:44:36.883Z,5.20
2018-09-17T08:49:46.960Z,5.07
2018-09-17T08:55:02.348Z,4.70
2018-09-17T09:00:19.559Z,4.77
2018-09-17T09:05:34.590Z,5.03
2018-09-17T09:10:46.365Z,4.73
2018-09-17T09:15:56.348Z,4.63
2018-09-17T09:21:07.073Z,4.10
2018-09-17T09:26:17.057Z,4.50
2018-09-17T09:31:26.868Z,3.77
2018-09-17T09:36:36.835Z,4.00
2018-09-17T09:41:46.887Z,3.80
2018-09-17T09:46:56.900Z,3.50
2018-09-17T09:52:06.968Z,4.17
2018-09-17T09:57:16.968Z,4.60
2018-09-17T10:02:31.017Z,3.20
2018-09-17T10:07:40.952Z,3.60
2018-09-17T10:12:56.403Z,3.87
2018-09-17T10:18:11.863Z,4.33
2018-09-17T10:23:21.876Z,2.93
2018-09-17T10:28:31.923Z,2.50
2018-09-17T10:33:41.929Z,3.17
2018-09-17T10:38:51.956Z,2.90
2018-09-17T10:44:02.032Z,3.10
2018-09-17T10:49:12.076Z,3.00
2018-09-17T10:54:22.106Z,3.03
2018-09-17T10:59:32.166Z,3.53
2018-09-17T11:04:42.279Z,3.87
2018-09-17T11:09:52.391Z,2.50
2018-09-17T11:15:02.447Z,2.30
2018-09-17T11:20:12.495Z,3.00
2018-09-17T11:25:22.544Z,3.33
2018-09-17T11:30:32.580Z,2.37
2018-09-17T11:35:42.591Z,2.40
2018-09-17T11:40:52.594Z,2.57
2018-09-17T11:46:02.673Z,2.00
2018-09-17T11:51:12.668Z,2.23
2018-09-17T11:56:22.676Z,2.93
2018-09-17T12:01:38.218Z,2.43
2018-09-17T12:06:53.315Z,2.13
2018-09-17T12:12:03.400Z,2.70
2018-09-17T12:17:13.399Z,2.93
2018-09-17T12:22:23.452Z,2.90
2018-09-17T12:27:33.488Z,2.57
2018-09-17T12:32:43.593Z,2.37
2018-09-17T12:37:53.501Z,2.50
2018-09-17T12:43:03.356Z,3.20
2018-09-17T12:48:13.413Z,3.17
2018-09-17T12:53:23.439Z,3.60
2018-09-17T12:58:33.351Z,2.20
2018-09-17T13:03:43.328Z,2.20
2018-09-17T13:08:53.335Z,2.50
2018-09-17T13:14:03.408Z,2.47
2018-09-17T13:19:13.453Z,2.20
2018-09-17T13:24:23.511Z,2.50
2018-09-17T13:29:33.541Z,2.50
2018-09-17T13:34:43.540Z,2.10
2018-09-17T13:39:53.577Z,2.70
2018-09-17T13:45:03.623Z,2.57
2018-09-17T13:50:13.569Z,2.30
2018-09-17T13:55:23.610Z,2.10
2018-09-17T14:00:33.634Z,2.53
2018-09-17T14:05:43.595Z,2.83
2018-09-17T14:10:53.565Z,2.30
2018-09-17T14:16:08.003Z,2.30
2018-09-17T14:21:18.037Z,2.37
2018-09-17T14:26:28.666Z,2.23
2018-09-17T14:31:44.032Z,2.67
2018-09-17T14:36:54.035Z,2.43
2018-09-17T14:42:04.080Z,2.80
2018-09-17T14:47:14.017Z,2.87
2018-09-17T14:52:23.984Z,2.80
2018-09-17T14:57:33.974Z,2.40
2018-09-17T15:02:44.006Z,2.40
2018-09-17T15:07:54.035Z,2.30
2018-09-17T15:13:04.033Z,2.43
2018-09-17T15:18:14.594Z,3.10
2018-09-17T15:23:24.793Z,3.00
2018-09-17T15:28:34.860Z,3.17
2018-09-17T15:33:44.888Z,2.90
2018-09-17T15:38:54.830Z,3.20
2018-09-17T15:44:04.904Z,2.87
2018-09-17T15:49:14.876Z,3.07
2018-09-17T15:54:24.918Z,3.03
2018-09-17T15:59:35.223Z,3.50
2018-09-17T16:04:45.305Z,2.70
2018-09-17T16:09:55.244Z,2.87
2018-09-17T16:15:05.115Z,3.30
2018-09-17T16:20:15.147Z,3.27
2018-09-17T16:25:25.173Z,3.20
2018-09-17T16:30:35.191Z,3.87
2018-09-17T16:35:45.369Z,2.73
2018-09-17T16:40:55.985Z,3.00
2018-09-17T16:46:05.926Z,3.13
2018-09-17T16:51:15.988Z,3.50
2018-09-17T16:56:26.326Z,3.40
2018-09-17T17:01:36.404Z,3.13
2018-09-17T17:06:47.576Z,3.03
2018-09-17T17:11:57.735Z,2.93
2018-09-17T17:17:07.764Z,3.70
2018-09-17T17:22:17.936Z,3.30
2018-09-17T17:27:28.760Z,3.90
2018-09-17T17:32:38.800Z,3.40
2018-09-17T17:37:48.966Z,3.90
2018-09-17T17:42:58.967Z,4.30
2018-09-17T17:48:08.976Z,3.77
2018-09-17T17:53:18.886Z,3.93
2018-09-17T17:58:30.120Z,4.07
2018-09-17T18:03:40.199Z,4.77
2018-09-17T18:08:50.189Z,3.83
2018-09-17T18:14:00.222Z,4.10
2018-09-17T18:19:10.232Z,5.00
2018-09-17T18:24:20.161Z,5.47
2018-09-17T18:29:30.125Z,6.13
2018-09-17T18:34:40.057Z,5.10
2018-09-17T18:39:50.070Z,4.47
2018-09-17T18:45:00.110Z,4.00
2018-09-17T18:50:10.215Z,4.00
2018-09-17T18:55:20.236Z,4.57
2018-09-17T19:00:30.728Z,4.30
2018-09-17T19:05:40.623Z,3.97
2018-09-17T19:10:50.641Z,4.07
2018-09-17T19:16:00.836Z,3.83
2018-09-17T19:21:11.072Z,3.13
2018-09-17T19:26:20.924Z,3.97
2018-09-17T19:31:31.242Z,3.30
2018-09-17T19:36:41.184Z,3.73
2018-09-17T19:41:51.135Z,3.90
2018-09-17T19:47:00.994Z,3.60
2018-09-17T19:52:16.333Z,4.00
2018-09-17T19:57:31.780Z,3.33
2018-09-17T20:02:41.908Z,3.23
2018-09-17T20:07:52.060Z,2.73
2018-09-17T20:13:01.983Z,2.90
2018-09-17T20:18:12.021Z,2.97
2018-09-17T20:23:21.961Z,3.07
2018-09-17T20:28:31.887Z,3.60
2018-09-17T20:33:41.972Z,3.00
2018-09-17T20:38:51.921Z,3.20
2018-09-17T20:44:01.856Z,3.30
2018-09-17T20:49:11.982Z,3.00
2018-09-17T20:54:21.932Z,3.00
2018-09-17T20:59:31.790Z,3.10
2018-09-17T21:04:41.735Z,3.00
2018-09-17T21:09:52.297Z,2.87
2018-09-17T21:15:02.389Z,2.77
2018-09-17T21:20:12.408Z,2.77
2018-09-17T21:25:22.594Z,2.80
2018-09-17T21:30:32.395Z,2.97
2018-09-17T21:35:42.272Z,3.00
2018-09-17T21:40:52.176Z,2.93
2018-09-17T21:46:02.036Z,2.90
2018-09-17T21:51:12.207Z,3.00
2018-09-17T21:56:22.098Z,3.00
2018-09-17T22:01:32.119Z,2.97
2018-09-17T22:06:42.104Z,2.97
2018-09-17T22:11:52.223Z,3.00
2018-09-17T22:17:02.192Z,3.07
2018-09-17T22:22:12.055Z,2.87
2018-09-17T22:27:22.073Z,2.70
2018-09-17T22:32:32.000Z,3.20
2018-09-17T22:37:42.045Z,3.07
2018-09-17T22:42:51.931Z,2.90
2018-09-17T22:48:01.876Z,2.67
2018-09-17T22:53:11.989Z,3.20
2018-09-17T22:58:21.959Z,3.50
2018-09-17T23:03:31.948Z,3.37
2018-09-17T23:08:43.291Z,2.83
2018-09-17T23:13:53.168Z,3.13
2018-09-17T23:19:03.235Z,3.60
2018-09-17T23:24:13.260Z,3.07
2018-09-17T23:29:23.192Z,3.13
2018-09-17T23:34:33.256Z,3.37
2018-09-17T23:39:43.318Z,3.00
2018-09-17T23:44:53.225Z,3.30
2018-09-17T23:50:03.232Z,3.60
2018-09-17T23:55:13.311Z,3.00
